sensor_id;sensor_type;location;lat;lon;timestamp;P1;durP1;ratioP1;P2;durP2;ratioP2
57317;SDS011;43157;50.982;18.132;2023-04-03T00:02:14;9.10;;;2.10;;
57317;SDS011;43157;50.982;18.132;2023-04-03T00:04:40;10.60;;;2.20;;
57317;SDS011;43157;50.982;18.132;2023-04-03T00:07:06;10.70;;;2.30;;
57317;SDS011;43157;50.982;18.132;2023-04-03T00:09:31;11.90;;;2.00;;
57317;SDS011;43157;50.982;18.132;2023-04-03T00:11:57;9.70;;;1.60;;
57317;SDS011;43157;50.982;18.132;2023-04-03T00:14:23;8.10;;;1.80;;
57317;SDS011;43157;50.982;18.132;2023-04-03T00:16:48;13.10;;;1.90;;
57317;SDS011;43157;50.982;18.132;2023-04-03T00:19:14;8.80;;;1.60;;
57317;SDS011;43157;50.982;18.132;2023-04-03T00:21:40;11.60;;;1.60;;
57317;SDS011;43157;50.982;18.132;2023-04-03T00:24:06;9.30;;;1.40;;
57317;SDS011;43157;50.982;18.132;2023-04-03T00:26:31;7.90;;;1.50;;
57317;SDS011;43157;50.982;18.132;2023-04-03T00:28:57;9.60;;;1.50;;
57317;SDS011;43157;50.982;18.132;2023-04-03T00:31:23;14.20;;;2.00;;
57317;SDS011;43157;50.982;18.132;2023-04-03T00:33:48;10.70;;;1.90;;
57317;SDS011;43157;50.982;18.132;2023-04-03T00:36:15;12.60;;;2.00;;
57317;SDS011;43157;50.982;18.132;2023-04-03T00:38:41;7.40;;;1.10;;
57317;SDS011;43157;50.982;18.132;2023-04-03T00:41:07;9.70;;;1.40;;
57317;SDS011;43157;50.982;18.132;2023-04-03T00:43:33;6.60;;;0.90;;
57317;SDS011;43157;50.982;18.132;2023-04-03T00:45:59;7.50;;;1.30;;
57317;SDS011;43157;50.982;18.132;2023-04-03T00:48:29;11.00;;;1.70;;
57317;SDS011;43157;50.982;18.132;2023-04-03T00:51:05;8.20;;;1.20;;
57317;SDS011;43157;50.982;18.132;2023-04-03T00:53:38;7.50;;;1.90;;
57317;SDS011;43157;50.982;18.132;2023-04-03T00:56:08;9.40;;;1.60;;
57317;SDS011;43157;50.982;18.132;2023-04-03T00:58:47;7.40;;;1.70;;
57317;SDS011;43157;50.982;18.132;2023-04-03T01:01:17;8.00;;;1.60;;
57317;SDS011;43157;50.982;18.132;2023-04-03T01:03:45;12.90;;;2.00;;
57317;SDS011;43157;50.982;18.132;2023-04-03T01:06:11;9.70;;;2.00;;
57317;SDS011;43157;50.982;18.132;2023-04-03T01:08:38;10.70;;;2.00;;
57317;SDS011;43157;50.982;18.132;2023-04-03T01:11:04;11.10;;;2.00;;
57317;SDS011;43157;50.982;18.132;2023-04-03T01:13:31;10.20;;;1.80;;
57317;SDS011;43157;50.982;18.132;2023-04-03T01:16:04;10.90;;;2.20;;
57317;SDS011;43157;50.982;18.132;2023-04-03T01:18:31;7.40;;;1.60;;
57317;SDS011;43157;50.982;18.132;2023-04-03T01:26:29;9.80;;;1.50;;
57317;SDS011;43157;50.982;18.132;2023-04-03T01:28:55;10.50;;;2.00;;
57317;SDS011;43157;50.982;18.132;2023-04-03T01:34:15;15.10;;;3.70;;
57317;SDS011;43157;50.982;18.132;2023-04-03T01:36:41;12.50;;;2.70;;
57317;SDS011;43157;50.982;18.132;2023-04-03T01:39:06;12.50;;;2.90;;
57317;SDS011;43157;50.982;18.132;2023-04-03T01:41:32;14.00;;;2.20;;
57317;SDS011;43157;50.982;18.132;2023-04-03T01:43:58;11.90;;;2.60;;
57317;SDS011;43157;50.982;18.132;2023-04-03T01:46:24;12.20;;;2.30;;
57317;SDS011;43157;50.982;18.132;2023-04-03T01:48:50;11.20;;;2.30;;
57317;SDS011;43157;50.982;18.132;2023-04-03T01:51:16;9.80;;;2.40;;
57317;SDS011;43157;50.982;18.132;2023-04-03T01:53:42;14.20;;;3.00;;
57317;SDS011;43157;50.982;18.132;2023-04-03T01:56:07;10.60;;;2.20;;
57317;SDS011;43157;50.982;18.132;2023-04-03T01:58:33;10.90;;;2.90;;
57317;SDS011;43157;50.982;18.132;2023-04-03T02:01:02;10.80;;;2.90;;
57317;SDS011;43157;50.982;18.132;2023-04-03T02:03:28;13.30;;;2.30;;
57317;SDS011;43157;50.982;18.132;2023-04-03T02:05:53;9.60;;;2.50;;
57317;SDS011;43157;50.982;18.132;2023-04-03T02:08:19;10.40;;;2.40;;
57317;SDS011;43157;50.982;18.132;2023-04-03T02:10:49;12.40;;;3.10;;
57317;SDS011;43157;50.982;18.132;2023-04-03T02:13:15;11.60;;;2.20;;
57317;SDS011;43157;50.982;18.132;2023-04-03T02:15:42;11.20;;;2.60;;
57317;SDS011;43157;50.982;18.132;2023-04-03T02:18:07;19.50;;;3.40;;
57317;SDS011;43157;50.982;18.132;2023-04-03T02:20:33;9.10;;;2.30;;
57317;SDS011;43157;50.982;18.132;2023-04-03T02:22:59;12.20;;;3.10;;
57317;SDS011;43157;50.982;18.132;2023-04-03T02:25:25;16.50;;;2.80;;
57317;SDS011;43157;50.982;18.132;2023-04-03T02:27:51;13.20;;;3.20;;
57317;SDS011;43157;50.982;18.132;2023-04-03T02:30:17;14.70;;;2.90;;
57317;SDS011;43157;50.982;18.132;2023-04-03T02:32:43;11.00;;;2.70;;
57317;SDS011;43157;50.982;18.132;2023-04-03T02:35:09;11.20;;;2.70;;
57317;SDS011;43157;50.982;18.132;2023-04-03T02:37:36;10.40;;;2.90;;
57317;SDS011;43157;50.982;18.132;2023-04-03T02:40:02;11.30;;;2.70;;
57317;SDS011;43157;50.982;18.132;2023-04-03T02:42:29;12.80;;;3.40;;
57317;SDS011;43157;50.982;18.132;2023-04-03T02:44:55;12.50;;;3.20;;
57317;SDS011;43157;50.982;18.132;2023-04-03T02:47:21;13.10;;;3.20;;
57317;SDS011;43157;50.982;18.132;2023-04-03T02:49:48;10.00;;;2.40;;
57317;SDS011;43157;50.982;18.132;2023-04-03T02:52:14;10.80;;;3.00;;
57317;SDS011;43157;50.982;18.132;2023-04-03T02:54:40;10.20;;;2.20;;
57317;SDS011;43157;50.982;18.132;2023-04-03T02:57:06;11.90;;;3.20;;
57317;SDS011;43157;50.982;18.132;2023-04-03T02:59:35;10.20;;;2.60;;
57317;SDS011;43157;50.982;18.132;2023-04-03T03:02:01;16.00;;;3.80;;
57317;SDS011;43157;50.982;18.132;2023-04-03T03:04:27;11.20;;;3.40;;
57317;SDS011;43157;50.982;18.132;2023-04-03T03:06:52;13.70;;;3.60;;
57317;SDS011;43157;50.982;18.132;2023-04-03T03:09:18;11.80;;;4.30;;
57317;SDS011;43157;50.982;18.132;2023-04-03T03:11:43;14.80;;;6.30;;
57317;SDS011;43157;50.982;18.132;2023-04-03T03:14:09;17.40;;;5.20;;
57317;SDS011;43157;50.982;18.132;2023-04-03T03:16:35;17.80;;;6.10;;
57317;SDS011;43157;50.982;18.132;2023-04-03T03:19:01;19.20;;;5.20;;
57317;SDS011;43157;50.982;18.132;2023-04-03T03:21:26;15.30;;;5.40;;
57317;SDS011;43157;50.982;18.132;2023-04-03T03:23:52;16.60;;;5.00;;
57317;SDS011;43157;50.982;18.132;2023-04-03T03:26:18;15.20;;;5.20;;
57317;SDS011;43157;50.982;18.132;2023-04-03T03:28:44;17.60;;;5.00;;
57317;SDS011;43157;50.982;18.132;2023-04-03T03:31:10;17.00;;;6.00;;
57317;SDS011;43157;50.982;18.132;2023-04-03T03:33:36;14.70;;;4.60;;
57317;SDS011;43157;50.982;18.132;2023-04-03T03:36:02;15.20;;;4.40;;
57317;SDS011;43157;50.982;18.132;2023-04-03T03:38:28;15.00;;;5.10;;
57317;SDS011;43157;50.982;18.132;2023-04-03T03:40:54;15.30;;;4.50;;
57317;SDS011;43157;50.982;18.132;2023-04-03T03:43:19;18.20;;;4.50;;
57317;SDS011;43157;50.982;18.132;2023-04-03T03:45:46;13.00;;;4.00;;
57317;SDS011;43157;50.982;18.132;2023-04-03T03:48:15;15.40;;;4.70;;
57317;SDS011;43157;50.982;18.132;2023-04-03T03:50:41;16.50;;;4.60;;
57317;SDS011;43157;50.982;18.132;2023-04-03T03:53:06;12.40;;;3.80;;
57317;SDS011;43157;50.982;18.132;2023-04-03T03:55:32;19.40;;;4.00;;
57317;SDS011;43157;50.982;18.132;2023-04-03T03:57:58;11.20;;;2.90;;
57317;SDS011;43157;50.982;18.132;2023-04-03T04:14:10;14.90;;;3.90;;
57317;SDS011;43157;50.982;18.132;2023-04-03T04:16:37;14.90;;;3.90;;
57317;SDS011;43157;50.982;18.132;2023-04-03T04:19:03;12.00;;;3.30;;
57317;SDS011;43157;50.982;18.132;2023-04-03T04:21:29;12.90;;;4.40;;
57317;SDS011;43157;50.982;18.132;2023-04-03T04:23:54;16.40;;;4.00;;
57317;SDS011;43157;50.982;18.132;2023-04-03T04:26:20;10.10;;;3.00;;
57317;SDS011;43157;50.982;18.132;2023-04-03T04:28:46;16.00;;;3.50;;
57317;SDS011;43157;50.982;18.132;2023-04-03T04:31:12;16.20;;;4.50;;
57317;SDS011;43157;50.982;18.132;2023-04-03T04:33:37;16.60;;;5.00;;
57317;SDS011;43157;50.982;18.132;2023-04-03T04:36:03;15.50;;;4.80;;
57317;SDS011;43157;50.982;18.132;2023-04-03T04:38:28;12.90;;;3.90;;
57317;SDS011;43157;50.982;18.132;2023-04-03T04:40:54;17.70;;;4.60;;
57317;SDS011;43157;50.982;18.132;2023-04-03T04:43:20;15.70;;;4.70;;
57317;SDS011;43157;50.982;18.132;2023-04-03T04:45:45;13.30;;;4.20;;
57317;SDS011;43157;50.982;18.132;2023-04-03T04:48:12;14.50;;;3.80;;
57317;SDS011;43157;50.982;18.132;2023-04-03T04:50:38;13.80;;;4.20;;
57317;SDS011;43157;50.982;18.132;2023-04-03T04:53:03;16.70;;;4.90;;
57317;SDS011;43157;50.982;18.132;2023-04-03T04:55:29;14.70;;;3.70;;
57317;SDS011;43157;50.982;18.132;2023-04-03T04:57:55;15.30;;;4.50;;
57317;SDS011;43157;50.982;18.132;2023-04-03T05:00:21;15.00;;;5.00;;
57317;SDS011;43157;50.982;18.132;2023-04-03T05:02:47;14.00;;;5.10;;
57317;SDS011;43157;50.982;18.132;2023-04-03T05:05:13;16.80;;;5.20;;
57317;SDS011;43157;50.982;18.132;2023-04-03T05:07:39;13.40;;;3.80;;
57317;SDS011;43157;50.982;18.132;2023-04-03T05:10:04;16.10;;;4.20;;
57317;SDS011;43157;50.982;18.132;2023-04-03T05:12:31;16.50;;;4.70;;
57317;SDS011;43157;50.982;18.132;2023-04-03T05:14:57;15.70;;;4.60;;
57317;SDS011;43157;50.982;18.132;2023-04-03T05:17:23;15.20;;;3.90;;
57317;SDS011;43157;50.982;18.132;2023-04-03T05:19:49;12.00;;;4.10;;
57317;SDS011;43157;50.982;18.132;2023-04-03T05:22:15;16.40;;;3.40;;
57317;SDS011;43157;50.982;18.132;2023-04-03T05:24:40;14.70;;;4.30;;
57317;SDS011;43157;50.982;18.132;2023-04-03T05:27:06;13.20;;;4.40;;
57317;SDS011;43157;50.982;18.132;2023-04-03T05:29:31;18.40;;;4.70;;
57317;SDS011;43157;50.982;18.132;2023-04-03T05:31:57;15.40;;;4.30;;
57317;SDS011;43157;50.982;18.132;2023-04-03T05:34:23;15.70;;;4.00;;
57317;SDS011;43157;50.982;18.132;2023-04-03T05:36:48;18.00;;;5.40;;
57317;SDS011;43157;50.982;18.132;2023-04-03T05:39:14;12.30;;;3.40;;
57317;SDS011;43157;50.982;18.132;2023-04-03T05:41:40;17.40;;;5.00;;
57317;SDS011;43157;50.982;18.132;2023-04-03T05:44:05;15.30;;;4.20;;
57317;SDS011;43157;50.982;18.132;2023-04-03T05:46:31;15.60;;;4.90;;
57317;SDS011;43157;50.982;18.132;2023-04-03T05:48:56;14.60;;;3.70;;
57317;SDS011;43157;50.982;18.132;2023-04-03T05:51:23;10.40;;;3.30;;
57317;SDS011;43157;50.982;18.132;2023-04-03T05:54:02;14.70;;;4.10;;
57317;SDS011;43157;50.982;18.132;2023-04-03T05:56:32;14.90;;;3.60;;
57317;SDS011;43157;50.982;18.132;2023-04-03T05:58:57;17.60;;;4.00;;
57317;SDS011;43157;50.982;18.132;2023-04-03T06:01:23;19.80;;;4.50;;
57317;SDS011;43157;50.982;18.132;2023-04-03T06:03:49;14.10;;;4.20;;
57317;SDS011;43157;50.982;18.132;2023-04-03T06:06:15;13.70;;;4.00;;
57317;SDS011;43157;50.982;18.132;2023-04-03T06:08:40;15.50;;;4.00;;
57317;SDS011;43157;50.982;18.132;2023-04-03T06:11:06;13.10;;;3.30;;
57317;SDS011;43157;50.982;18.132;2023-04-03T06:13:34;11.00;;;2.60;;
57317;SDS011;43157;50.982;18.132;2023-04-03T06:16:00;11.00;;;3.00;;
57317;SDS011;43157;50.982;18.132;2023-04-03T06:18:26;10.60;;;2.80;;
57317;SDS011;43157;50.982;18.132;2023-04-03T06:20:51;17.00;;;3.50;;
57317;SDS011;43157;50.982;18.132;2023-04-03T06:23:17;16.20;;;3.60;;
57317;SDS011;43157;50.982;18.132;2023-04-03T06:25:43;8.80;;;2.50;;
57317;SDS011;43157;50.982;18.132;2023-04-03T06:28:09;11.30;;;2.90;;
57317;SDS011;43157;50.982;18.132;2023-04-03T06:30:35;14.70;;;3.20;;
57317;SDS011;43157;50.982;18.132;2023-04-03T06:33:02;11.20;;;3.00;;
57317;SDS011;43157;50.982;18.132;2023-04-03T06:35:28;15.10;;;2.70;;
57317;SDS011;43157;50.982;18.132;2023-04-03T06:37:55;11.40;;;2.20;;
57317;SDS011;43157;50.982;18.132;2023-04-03T06:40:22;10.30;;;2.70;;
57317;SDS011;43157;50.982;18.132;2023-04-03T06:42:49;12.90;;;2.70;;
57317;SDS011;43157;50.982;18.132;2023-04-03T06:45:16;12.30;;;3.50;;
57317;SDS011;43157;50.982;18.132;2023-04-03T06:47:41;11.30;;;2.40;;
57317;SDS011;43157;50.982;18.132;2023-04-03T06:50:09;10.60;;;2.70;;
57317;SDS011;43157;50.982;18.132;2023-04-03T06:52:36;10.90;;;3.30;;
57317;SDS011;43157;50.982;18.132;2023-04-03T06:55:03;12.70;;;3.00;;
57317;SDS011;43157;50.982;18.132;2023-04-03T06:57:29;10.50;;;2.40;;
57317;SDS011;43157;50.982;18.132;2023-04-03T06:59:55;13.30;;;2.30;;
57317;SDS011;43157;50.982;18.132;2023-04-03T07:02:21;13.10;;;2.40;;
57317;SDS011;43157;50.982;18.132;2023-04-03T07:04:46;8.20;;;1.80;;
57317;SDS011;43157;50.982;18.132;2023-04-03T07:07:12;10.30;;;2.40;;
57317;SDS011;43157;50.982;18.132;2023-04-03T07:09:38;8.90;;;2.00;;
57317;SDS011;43157;50.982;18.132;2023-04-03T07:12:04;10.00;;;2.00;;
57317;SDS011;43157;50.982;18.132;2023-04-03T07:14:30;10.70;;;3.00;;
57317;SDS011;43157;50.982;18.132;2023-04-03T07:16:56;10.60;;;2.90;;
57317;SDS011;43157;50.982;18.132;2023-04-03T07:19:22;13.20;;;2.80;;
57317;SDS011;43157;50.982;18.132;2023-04-03T07:21:50;12.40;;;2.80;;
57317;SDS011;43157;50.982;18.132;2023-04-03T07:24:15;12.50;;;2.90;;
57317;SDS011;43157;50.982;18.132;2023-04-03T07:26:41;10.70;;;2.30;;
57317;SDS011;43157;50.982;18.132;2023-04-03T07:29:07;13.00;;;2.40;;
57317;SDS011;43157;50.982;18.132;2023-04-03T07:31:32;11.20;;;2.20;;
57317;SDS011;43157;50.982;18.132;2023-04-03T07:33:58;10.60;;;2.50;;
57317;SDS011;43157;50.982;18.132;2023-04-03T07:36:24;9.50;;;2.70;;
57317;SDS011;43157;50.982;18.132;2023-04-03T07:38:50;11.70;;;2.60;;
57317;SDS011;43157;50.982;18.132;2023-04-03T07:41:16;10.40;;;3.00;;
57317;SDS011;43157;50.982;18.132;2023-04-03T07:43:43;10.10;;;2.40;;
57317;SDS011;43157;50.982;18.132;2023-04-03T07:46:10;14.50;;;3.60;;
57317;SDS011;43157;50.982;18.132;2023-04-03T07:48:36;11.60;;;2.70;;
57317;SDS011;43157;50.982;18.132;2023-04-03T07:51:02;12.90;;;3.30;;
57317;SDS011;43157;50.982;18.132;2023-04-03T07:53:29;11.70;;;2.50;;
57317;SDS011;43157;50.982;18.132;2023-04-03T07:55:56;9.30;;;2.40;;
57317;SDS011;43157;50.982;18.132;2023-04-03T07:58:22;10.40;;;2.40;;
57317;SDS011;43157;50.982;18.132;2023-04-03T08:00:48;7.40;;;1.70;;
57317;SDS011;43157;50.982;18.132;2023-04-03T08:03:14;5.30;;;1.50;;
57317;SDS011;43157;50.982;18.132;2023-04-03T08:05:42;7.30;;;1.60;;
57317;SDS011;43157;50.982;18.132;2023-04-03T08:08:12;10.50;;;2.20;;
57317;SDS011;43157;50.982;18.132;2023-04-03T08:10:41;8.10;;;1.70;;
57317;SDS011;43157;50.982;18.132;2023-04-03T08:13:07;9.00;;;1.60;;
57317;SDS011;43157;50.982;18.132;2023-04-03T08:15:33;7.40;;;1.50;;
57317;SDS011;43157;50.982;18.132;2023-04-03T08:17:59;15.10;;;2.10;;
57317;SDS011;43157;50.982;18.132;2023-04-03T08:20:26;9.40;;;1.60;;
57317;SDS011;43157;50.982;18.132;2023-04-03T08:22:52;5.70;;;1.30;;
57317;SDS011;43157;50.982;18.132;2023-04-03T08:25:18;7.80;;;1.90;;
57317;SDS011;43157;50.982;18.132;2023-04-03T08:27:44;6.50;;;1.40;;
57317;SDS011;43157;50.982;18.132;2023-04-03T08:30:10;4.90;;;0.90;;
57317;SDS011;43157;50.982;18.132;2023-04-03T08:32:37;8.20;;;1.20;;
57317;SDS011;43157;50.982;18.132;2023-04-03T08:35:03;5.30;;;0.90;;
57317;SDS011;43157;50.982;18.132;2023-04-03T08:37:31;7.50;;;1.30;;
57317;SDS011;43157;50.982;18.132;2023-04-03T08:39:57;7.80;;;1.00;;
57317;SDS011;43157;50.982;18.132;2023-04-03T08:50:04;7.20;;;1.20;;
57317;SDS011;43157;50.982;18.132;2023-04-03T08:52:36;6.00;;;1.40;;
57317;SDS011;43157;50.982;18.132;2023-04-03T08:55:06;7.30;;;1.00;;
57317;SDS011;43157;50.982;18.132;2023-04-03T08:57:39;6.00;;;0.80;;
57317;SDS011;43157;50.982;18.132;2023-04-03T09:02:41;5.40;;;1.00;;
57317;SDS011;43157;50.982;18.132;2023-04-03T09:05:13;8.00;;;1.10;;
57317;SDS011;43157;50.982;18.132;2023-04-03T09:07:43;2.80;;;0.70;;
57317;SDS011;43157;50.982;18.132;2023-04-03T09:10:24;7.90;;;1.00;;
57317;SDS011;43157;50.982;18.132;2023-04-03T09:12:55;5.80;;;1.10;;
57317;SDS011;43157;50.982;18.132;2023-04-03T09:15:32;5.30;;;1.10;;
57317;SDS011;43157;50.982;18.132;2023-04-03T09:20:46;6.60;;;1.10;;
57317;SDS011;43157;50.982;18.132;2023-04-03T09:23:35;9.10;;;1.20;;
57317;SDS011;43157;50.982;18.132;2023-04-03T09:28:42;8.20;;;1.40;;
57317;SDS011;43157;50.982;18.132;2023-04-03T09:34:05;5.10;;;1.20;;
57317;SDS011;43157;50.982;18.132;2023-04-03T09:36:46;6.40;;;1.10;;
57317;SDS011;43157;50.982;18.132;2023-04-03T09:39:18;5.00;;;1.00;;
57317;SDS011;43157;50.982;18.132;2023-04-03T09:42:03;7.80;;;1.50;;
57317;SDS011;43157;50.982;18.132;2023-04-03T09:44:35;6.50;;;1.30;;
57317;SDS011;43157;50.982;18.132;2023-04-03T09:49:49;6.20;;;0.90;;
57317;SDS011;43157;50.982;18.132;2023-04-03T09:52:25;7.00;;;1.10;;
57317;SDS011;43157;50.982;18.132;2023-04-03T09:54:51;4.50;;;1.00;;
57317;SDS011;43157;50.982;18.132;2023-04-03T09:57:17;6.90;;;1.00;;
57317;SDS011;43157;50.982;18.132;2023-04-03T09:59:56;9.20;;;1.90;;
57317;SDS011;43157;50.982;18.132;2023-04-03T10:08:07;6.20;;;1.80;;
57317;SDS011;43157;50.982;18.132;2023-04-03T10:10:36;7.60;;;2.10;;
57317;SDS011;43157;50.982;18.132;2023-04-03T10:13:19;11.00;;;3.30;;
57317;SDS011;43157;50.982;18.132;2023-04-03T10:20:51;6.30;;;1.50;;
57317;SDS011;43157;50.982;18.132;2023-04-03T10:23:21;8.70;;;1.60;;
57317;SDS011;43157;50.982;18.132;2023-04-03T10:34:30;6.70;;;1.40;;
57317;SDS011;43157;50.982;18.132;2023-04-03T10:42:35;7.70;;;1.60;;
57317;SDS011;43157;50.982;18.132;2023-04-03T10:45:20;5.50;;;1.40;;
57317;SDS011;43157;50.982;18.132;2023-04-03T10:50:51;13.40;;;3.00;;
57317;SDS011;43157;50.982;18.132;2023-04-03T10:58:51;5.60;;;1.30;;
57317;SDS011;43157;50.982;18.132;2023-04-03T11:01:24;9.80;;;2.00;;
57317;SDS011;43157;50.982;18.132;2023-04-03T11:03:54;10.20;;;2.00;;
57317;SDS011;43157;50.982;18.132;2023-04-03T11:06:24;7.50;;;1.50;;
57317;SDS011;43157;50.982;18.132;2023-04-03T11:08:51;7.90;;;1.90;;
57317;SDS011;43157;50.982;18.132;2023-04-03T11:16:24;7.20;;;1.80;;
57317;SDS011;43157;50.982;18.132;2023-04-03T11:18:56;7.60;;;2.10;;
57317;SDS011;43157;50.982;18.132;2023-04-03T11:21:36;7.70;;;1.70;;
57317;SDS011;43157;50.982;18.132;2023-04-03T11:24:05;13.30;;;2.70;;
57317;SDS011;43157;50.982;18.132;2023-04-03T11:26:47;17.70;;;5.20;;
57317;SDS011;43157;50.982;18.132;2023-04-03T11:29:15;9.50;;;2.50;;
57317;SDS011;43157;50.982;18.132;2023-04-03T11:34:26;8.10;;;1.70;;
57317;SDS011;43157;50.982;18.132;2023-04-03T11:37:01;9.00;;;2.00;;
57317;SDS011;43157;50.982;18.132;2023-04-03T11:48:01;9.70;;;2.20;;
57317;SDS011;43157;50.982;18.132;2023-04-03T11:50:39;7.90;;;1.90;;
57317;SDS011;43157;50.982;18.132;2023-04-03T12:05:56;8.80;;;1.70;;
57317;SDS011;43157;50.982;18.132;2023-04-03T12:19:27;5.80;;;1.40;;
57317;SDS011;43157;50.982;18.132;2023-04-03T12:24:28;8.40;;;1.30;;
57317;SDS011;43157;50.982;18.132;2023-04-03T12:29:43;5.90;;;1.30;;
57317;SDS011;43157;50.982;18.132;2023-04-03T12:45:51;9.00;;;1.60;;
57317;SDS011;43157;50.982;18.132;2023-04-03T12:48:53;7.60;;;1.50;;
57317;SDS011;43157;50.982;18.132;2023-04-03T12:51:22;7.30;;;1.40;;
57317;SDS011;43157;50.982;18.132;2023-04-03T12:53:49;6.10;;;1.30;;
57317;SDS011;43157;50.982;18.132;2023-04-03T12:56:27;6.70;;;1.70;;
57317;SDS011;43157;50.982;18.132;2023-04-03T12:58:54;5.90;;;1.30;;
57317;SDS011;43157;50.982;18.132;2023-04-03T13:01:25;9.30;;;2.50;;
57317;SDS011;43157;50.982;18.132;2023-04-03T13:03:56;7.00;;;2.00;;
57317;SDS011;43157;50.982;18.132;2023-04-03T13:06:27;5.50;;;1.40;;
57317;SDS011;43157;50.982;18.132;2023-04-03T13:11:26;8.30;;;1.90;;
57317;SDS011;43157;50.982;18.132;2023-04-03T13:14:03;8.40;;;2.10;;
57317;SDS011;43157;50.982;18.132;2023-04-03T13:16:40;5.60;;;1.30;;
57317;SDS011;43157;50.982;18.132;2023-04-03T13:19:14;9.70;;;1.60;;
57317;SDS011;43157;50.982;18.132;2023-04-03T13:21:42;4.60;;;1.10;;
57317;SDS011;43157;50.982;18.132;2023-04-03T13:24:09;6.40;;;1.40;;
57317;SDS011;43157;50.982;18.132;2023-04-03T13:26:36;9.40;;;2.10;;
57317;SDS011;43157;50.982;18.132;2023-04-03T13:29:05;7.10;;;1.40;;
57317;SDS011;43157;50.982;18.132;2023-04-03T13:31:34;9.50;;;2.00;;
57317;SDS011;43157;50.982;18.132;2023-04-03T13:34:11;9.40;;;2.50;;
57317;SDS011;43157;50.982;18.132;2023-04-03T13:36:40;7.30;;;1.60;;
57317;SDS011;43157;50.982;18.132;2023-04-03T13:41:42;4.80;;;1.20;;
57317;SDS011;43157;50.982;18.132;2023-04-03T13:44:16;8.00;;;2.20;;
57317;SDS011;43157;50.982;18.132;2023-04-03T13:46:42;15.40;;;4.10;;
57317;SDS011;43157;50.982;18.132;2023-04-03T13:51:57;8.30;;;1.80;;
57317;SDS011;43157;50.982;18.132;2023-04-03T13:54:25;10.70;;;1.80;;
57317;SDS011;43157;50.982;18.132;2023-04-03T13:56:55;5.90;;;1.70;;
57317;SDS011;43157;50.982;18.132;2023-04-03T13:59:28;8.80;;;3.10;;
57317;SDS011;43157;50.982;18.132;2023-04-03T14:04:43;7.30;;;1.80;;
57317;SDS011;43157;50.982;18.132;2023-04-03T14:07:10;8.00;;;1.50;;
57317;SDS011;43157;50.982;18.132;2023-04-03T14:09:37;5.70;;;1.30;;
57317;SDS011;43157;50.982;18.132;2023-04-03T14:12:24;5.50;;;1.60;;
57317;SDS011;43157;50.982;18.132;2023-04-03T14:14:51;6.70;;;1.50;;
57317;SDS011;43157;50.982;18.132;2023-04-03T14:17:22;7.30;;;1.70;;
57317;SDS011;43157;50.982;18.132;2023-04-03T14:19:50;7.50;;;1.90;;
57317;SDS011;43157;50.982;18.132;2023-04-03T14:22:24;6.30;;;1.50;;
57317;SDS011;43157;50.982;18.132;2023-04-03T14:24:53;10.80;;;1.90;;
57317;SDS011;43157;50.982;18.132;2023-04-03T14:27:26;7.20;;;1.30;;
57317;SDS011;43157;50.982;18.132;2023-04-03T14:29:55;10.50;;;1.60;;
57317;SDS011;43157;50.982;18.132;2023-04-03T14:32:23;9.40;;;2.40;;
57317;SDS011;43157;50.982;18.132;2023-04-03T14:34:49;7.70;;;1.70;;
57317;SDS011;43157;50.982;18.132;2023-04-03T14:37:18;6.90;;;1.50;;
57317;SDS011;43157;50.982;18.132;2023-04-03T14:39:46;6.30;;;1.90;;
57317;SDS011;43157;50.982;18.132;2023-04-03T14:42:14;6.40;;;1.50;;
57317;SDS011;43157;50.982;18.132;2023-04-03T14:44:45;7.80;;;2.00;;
57317;SDS011;43157;50.982;18.132;2023-04-03T14:47:15;5.20;;;1.30;;
57317;SDS011;43157;50.982;18.132;2023-04-03T14:49:42;7.00;;;1.90;;
57317;SDS011;43157;50.982;18.132;2023-04-03T14:52:16;9.60;;;1.50;;
57317;SDS011;43157;50.982;18.132;2023-04-03T14:54:45;9.00;;;1.30;;
57317;SDS011;43157;50.982;18.132;2023-04-03T14:57:11;8.40;;;2.40;;
57317;SDS011;43157;50.982;18.132;2023-04-03T14:59:39;7.70;;;2.90;;
57317;SDS011;43157;50.982;18.132;2023-04-03T15:02:27;10.00;;;2.40;;
57317;SDS011;43157;50.982;18.132;2023-04-03T15:04:55;9.50;;;1.80;;
57317;SDS011;43157;50.982;18.132;2023-04-03T15:07:22;11.20;;;2.20;;
57317;SDS011;43157;50.982;18.132;2023-04-03T15:09:49;7.20;;;1.40;;
57317;SDS011;43157;50.982;18.132;2023-04-03T15:12:15;8.50;;;2.00;;
57317;SDS011;43157;50.982;18.132;2023-04-03T15:14:41;11.30;;;4.70;;
57317;SDS011;43157;50.982;18.132;2023-04-03T15:17:08;11.10;;;2.70;;
57317;SDS011;43157;50.982;18.132;2023-04-03T15:19:39;8.00;;;2.00;;
57317;SDS011;43157;50.982;18.132;2023-04-03T15:22:05;6.50;;;1.90;;
57317;SDS011;43157;50.982;18.132;2023-04-03T15:24:31;9.50;;;2.20;;
57317;SDS011;43157;50.982;18.132;2023-04-03T15:26:57;8.90;;;2.60;;
57317;SDS011;43157;50.982;18.132;2023-04-03T15:29:24;19.00;;;6.10;;
57317;SDS011;43157;50.982;18.132;2023-04-03T15:31:50;10.60;;;3.10;;
57317;SDS011;43157;50.982;18.132;2023-04-03T15:34:18;15.20;;;5.30;;
57317;SDS011;43157;50.982;18.132;2023-04-03T15:36:44;11.30;;;3.90;;
57317;SDS011;43157;50.982;18.132;2023-04-03T15:39:10;11.20;;;3.60;;
57317;SDS011;43157;50.982;18.132;2023-04-03T15:41:35;11.70;;;4.00;;
57317;SDS011;43157;50.982;18.132;2023-04-03T15:44:01;9.20;;;1.80;;
57317;SDS011;43157;50.982;18.132;2023-04-03T15:46:27;9.50;;;2.60;;
57317;SDS011;43157;50.982;18.132;2023-04-03T15:48:52;10.30;;;2.50;;
57317;SDS011;43157;50.982;18.132;2023-04-03T15:51:18;15.50;;;4.10;;
57317;SDS011;43157;50.982;18.132;2023-04-03T15:53:43;6.00;;;1.50;;
57317;SDS011;43157;50.982;18.132;2023-04-03T15:56:09;7.00;;;1.70;;
57317;SDS011;43157;50.982;18.132;2023-04-03T15:58:37;4.60;;;1.20;;
57317;SDS011;43157;50.982;18.132;2023-04-03T16:01:02;6.70;;;1.60;;
57317;SDS011;43157;50.982;18.132;2023-04-03T16:03:28;8.40;;;1.80;;
57317;SDS011;43157;50.982;18.132;2023-04-03T16:05:54;6.50;;;1.90;;
57317;SDS011;43157;50.982;18.132;2023-04-03T16:08:20;10.00;;;2.10;;
57317;SDS011;43157;50.982;18.132;2023-04-03T16:10:45;8.40;;;1.80;;
57317;SDS011;43157;50.982;18.132;2023-04-03T16:13:12;8.80;;;2.30;;
57317;SDS011;43157;50.982;18.132;2023-04-03T16:15:38;6.20;;;1.60;;
57317;SDS011;43157;50.982;18.132;2023-04-03T16:18:04;10.00;;;2.00;;
57317;SDS011;43157;50.982;18.132;2023-04-03T16:20:30;10.90;;;2.30;;
57317;SDS011;43157;50.982;18.132;2023-04-03T16:22:57;10.00;;;2.60;;
57317;SDS011;43157;50.982;18.132;2023-04-03T16:25:25;10.50;;;2.80;;
57317;SDS011;43157;50.982;18.132;2023-04-03T16:27:51;10.60;;;2.90;;
57317;SDS011;43157;50.982;18.132;2023-04-03T16:30:17;23.20;;;13.10;;
57317;SDS011;43157;50.982;18.132;2023-04-03T16:32:43;13.30;;;7.20;;
57317;SDS011;43157;50.982;18.132;2023-04-03T16:35:10;11.10;;;3.80;;
57317;SDS011;43157;50.982;18.132;2023-04-03T16:37:36;18.20;;;5.30;;
57317;SDS011;43157;50.982;18.132;2023-04-03T16:40:03;24.20;;;8.20;;
57317;SDS011;43157;50.982;18.132;2023-04-03T16:42:30;12.00;;;4.50;;
57317;SDS011;43157;50.982;18.132;2023-04-03T16:44:56;19.50;;;6.50;;
57317;SDS011;43157;50.982;18.132;2023-04-03T16:47:23;11.40;;;4.00;;
57317;SDS011;43157;50.982;18.132;2023-04-03T16:49:49;11.80;;;3.40;;
57317;SDS011;43157;50.982;18.132;2023-04-03T16:52:15;15.10;;;3.40;;
57317;SDS011;43157;50.982;18.132;2023-04-03T16:54:40;14.80;;;5.50;;
57317;SDS011;43157;50.982;18.132;2023-04-03T16:57:06;12.80;;;4.60;;